sensor_id;sensor_type;location;lat;lon;timestamp;temperature;humidity
14884;DHT22;7534;50.762;7.000;2022-11-15T00:00:51;10.80;99.90
14884;DHT22;7534;50.762;7.000;2022-11-15T00:03:22;10.80;99.90
14884;DHT22;7534;50.762;7.000;2022-11-15T00:05:49;10.80;99.90
14884;DHT22;7534;50.762;7.000;2022-11-15T00:08:15;10.60;99.90
14884;DHT22;7534;50.762;7.000;2022-11-15T00:10:41;10.70;99.90
14884;DHT22;7534;50.762;7.000;2022-11-15T00:13:12;10.50;99.90
14884;DHT22;7534;50.762;7.000;2022-11-15T00:15:39;10.60;99.90
14884;DHT22;7534;50.762;7.000;2022-11-15T00:18:11;10.70;99.90
14884;DHT22;7534;50.762;7.000;2022-11-15T00:20:38;10.70;99.90
14884;DHT22;7534;50.762;7.000;2022-11-15T00:23:04;10.70;99.90
14884;DHT22;7534;50.762;7.000;2022-11-15T00:25:30;10.70;99.90
14884;DHT22;7534;50.762;7.000;2022-11-15T00:27:58;10.60;99.90
14884;DHT22;7534;50.762;7.000;2022-11-15T00:30:25;10.60;99.90
14884;DHT22;7534;50.762;7.000;2022-11-15T00:32:51;10.60;99.90
14884;DHT22;7534;50.762;7.000;2022-11-15T00:35:17;10.60;99.90
14884;DHT22;7534;50.762;7.000;2022-11-15T00:37:43;10.60;99.90
14884;DHT22;7534;50.762;7.000;2022-11-15T00:40:10;10.60;99.90
14884;DHT22;7534;50.762;7.000;2022-11-15T00:42:38;10.60;99.90
14884;DHT22;7534;50.762;7.000;2022-11-15T00:45:04;10.60;99.90
14884;DHT22;7534;50.762;7.000;2022-11-15T00:47:30;10.40;99.90
14884;DHT22;7534;50.762;7.000;2022-11-15T00:49:56;10.30;99.90
14884;DHT22;7534;50.762;7.000;2022-11-15T00:52:21;10.50;99.90
14884;DHT22;7534;50.762;7.000;2022-11-15T00:54:47;10.50;99.90
14884;DHT22;7534;50.762;7.000;2022-11-15T00:57:13;10.50;99.90
14884;DHT22;7534;50.762;7.000;2022-11-15T00:59:38;10.50;99.90
14884;DHT22;7534;50.762;7.000;2022-11-15T01:02:04;10.50;99.90
14884;DHT22;7534;50.762;7.000;2022-11-15T01:04:30;10.50;99.90
14884;DHT22;7534;50.762;7.000;2022-11-15T01:06:55;10.40;99.90
14884;DHT22;7534;50.762;7.000;2022-11-15T01:09:21;10.40;99.90
14884;DHT22;7534;50.762;7.000;2022-11-15T01:11:47;10.50;99.90
14884;DHT22;7534;50.762;7.000;2022-11-15T01:14:13;10.60;99.90
14884;DHT22;7534;50.762;7.000;2022-11-15T01:16:39;10.60;99.90
14884;DHT22;7534;50.762;7.000;2022-11-15T01:19:04;10.60;99.90
14884;DHT22;7534;50.762;7.000;2022-11-15T01:21:30;10.60;99.90
14884;DHT22;7534;50.762;7.000;2022-11-15T01:23:57;10.80;99.90
14884;DHT22;7534;50.762;7.000;2022-11-15T01:26:23;10.70;99.90
14884;DHT22;7534;50.762;7.000;2022-11-15T01:28:50;10.80;99.90
14884;DHT22;7534;50.762;7.000;2022-11-15T01:31:20;10.90;99.90
14884;DHT22;7534;50.762;7.000;2022-11-15T01:33:48;10.90;99.90
14884;DHT22;7534;50.762;7.000;2022-11-15T01:36:16;11.00;99.90
14884;DHT22;7534;50.762;7.000;2022-11-15T01:38:53;11.10;99.90
14884;DHT22;7534;50.762;7.000;2022-11-15T01:41:26;11.10;99.90
14884;DHT22;7534;50.762;7.000;2022-11-15T01:44:30;11.20;99.90
14884;DHT22;7534;50.762;7.000;2022-11-15T01:47:13;11.20;99.90
14884;DHT22;7534;50.762;7.000;2022-11-15T01:50:04;11.30;99.90
14884;DHT22;7534;50.762;7.000;2022-11-15T01:52:34;11.30;99.90
14884;DHT22;7534;50.762;7.000;2022-11-15T01:55:10;11.30;99.90
14884;DHT22;7534;50.762;7.000;2022-11-15T01:57:42;11.40;99.90
14884;DHT22;7534;50.762;7.000;2022-11-15T02:00:12;11.40;99.90
14884;DHT22;7534;50.762;7.000;2022-11-15T02:02:39;11.30;99.90
14884;DHT22;7534;50.762;7.000;2022-11-15T02:05:12;11.40;99.90
14884;DHT22;7534;50.762;7.000;2022-11-15T02:07:38;11.50;99.90
14884;DHT22;7534;50.762;7.000;2022-11-15T02:10:09;11.50;99.90
14884;DHT22;7534;50.762;7.000;2022-11-15T02:12:38;11.60;99.90
14884;DHT22;7534;50.762;7.000;2022-11-15T02:15:06;11.70;99.90
14884;DHT22;7534;50.762;7.000;2022-11-15T02:20:38;11.80;99.90
14884;DHT22;7534;50.762;7.000;2022-11-15T02:24:06;11.90;99.90
14884;DHT22;7534;50.762;7.000;2022-11-15T02:29:50;12.00;99.90
14884;DHT22;7534;50.762;7.000;2022-11-15T02:35:37;12.10;99.90
14884;DHT22;7534;50.762;7.000;2022-11-15T02:38:47;12.10;99.90
14884;DHT22;7534;50.762;7.000;2022-11-15T02:41:34;12.10;99.90
14884;DHT22;7534;50.762;7.000;2022-11-15T02:44:24;12.20;99.90
14884;DHT22;7534;50.762;7.000;2022-11-15T02:47:03;12.10;99.90
14884;DHT22;7534;50.762;7.000;2022-11-15T02:49:58;12.20;99.90
14884;DHT22;7534;50.762;7.000;2022-11-15T02:52:29;12.20;99.90
14884;DHT22;7534;50.762;7.000;2022-11-15T02:54:59;12.30;99.90
14884;DHT22;7534;50.762;7.000;2022-11-15T03:01:22;12.10;99.90
14884;DHT22;7534;50.762;7.000;2022-11-15T03:07:28;12.10;99.90
14884;DHT22;7534;50.762;7.000;2022-11-15T03:12:57;12.10;99.90
14884;DHT22;7534;50.762;7.000;2022-11-15T03:15:38;12.10;99.90
14884;DHT22;7534;50.762;7.000;2022-11-15T03:18:19;12.20;99.90
14884;DHT22;7534;50.762;7.000;2022-11-15T03:20:52;12.30;99.90
14884;DHT22;7534;50.762;7.000;2022-11-15T03:23:19;12.40;99.90
14884;DHT22;7534;50.762;7.000;2022-11-15T03:25:48;12.40;99.90
14884;DHT22;7534;50.762;7.000;2022-11-15T03:28:22;12.40;99.90
14884;DHT22;7534;50.762;7.000;2022-11-15T03:30:55;12.50;99.90
14884;DHT22;7534;50.762;7.000;2022-11-15T03:33:22;12.50;99.90
14884;DHT22;7534;50.762;7.000;2022-11-15T03:35:48;12.50;99.90
14884;DHT22;7534;50.762;7.000;2022-11-15T03:38:24;12.50;99.90
14884;DHT22;7534;50.762;7.000;2022-11-15T03:41:00;12.60;99.90
14884;DHT22;7534;50.762;7.000;2022-11-15T03:46:32;12.70;99.90
14884;DHT22;7534;50.762;7.000;2022-11-15T03:49:09;12.70;99.90
14884;DHT22;7534;50.762;7.000;2022-11-15T03:51:39;12.70;99.90
14884;DHT22;7534;50.762;7.000;2022-11-15T03:54:05;12.70;99.90
14884;DHT22;7534;50.762;7.000;2022-11-15T03:56:31;12.70;99.90
14884;DHT22;7534;50.762;7.000;2022-11-15T03:58:57;12.70;99.90
14884;DHT22;7534;50.762;7.000;2022-11-15T04:01:23;12.70;99.90
14884;DHT22;7534;50.762;7.000;2022-11-15T04:03:49;12.80;99.90
14884;DHT22;7534;50.762;7.000;2022-11-15T04:06:15;12.80;99.90
14884;DHT22;7534;50.762;7.000;2022-11-15T04:08:40;12.70;99.90
14884;DHT22;7534;50.762;7.000;2022-11-15T04:11:06;12.40;99.90
14884;DHT22;7534;50.762;7.000;2022-11-15T04:13:32;12.50;99.90
14884;DHT22;7534;50.762;7.000;2022-11-15T04:15:58;12.50;99.90
14884;DHT22;7534;50.762;7.000;2022-11-15T04:18:23;12.50;99.90
14884;DHT22;7534;50.762;7.000;2022-11-15T04:20:49;12.50;99.90
14884;DHT22;7534;50.762;7.000;2022-11-15T04:23:34;12.40;99.90
14884;DHT22;7534;50.762;7.000;2022-11-15T04:26:20;12.40;99.90
14884;DHT22;7534;50.762;7.000;2022-11-15T04:28:48;12.30;99.90
14884;DHT22;7534;50.762;7.000;2022-11-15T04:31:37;12.30;99.90
14884;DHT22;7534;50.762;7.000;2022-11-15T04:34:02;12.30;99.90
14884;DHT22;7534;50.762;7.000;2022-11-15T04:36:28;12.30;99.90
14884;DHT22;7534;50.762;7.000;2022-11-15T04:39:12;12.20;99.90
14884;DHT22;7534;50.762;7.000;2022-11-15T04:41:38;12.10;99.90
14884;DHT22;7534;50.762;7.000;2022-11-15T04:44:03;11.90;99.90
14884;DHT22;7534;50.762;7.000;2022-11-15T04:46:29;11.80;99.90
14884;DHT22;7534;50.762;7.000;2022-11-15T04:48:55;11.70;99.90
14884;DHT22;7534;50.762;7.000;2022-11-15T04:51:21;11.60;99.90
14884;DHT22;7534;50.762;7.000;2022-11-15T04:53:46;11.60;99.90
14884;DHT22;7534;50.762;7.000;2022-11-15T04:56:12;11.60;99.90
14884;DHT22;7534;50.762;7.000;2022-11-15T04:58:38;11.70;99.90
14884;DHT22;7534;50.762;7.000;2022-11-15T05:01:11;11.50;99.90
14884;DHT22;7534;50.762;7.000;2022-11-15T05:03:40;11.40;99.90
14884;DHT22;7534;50.762;7.000;2022-11-15T05:06:25;11.30;99.90
14884;DHT22;7534;50.762;7.000;2022-11-15T05:08:51;11.40;99.90
14884;DHT22;7534;50.762;7.000;2022-11-15T05:11:18;11.50;99.90
14884;DHT22;7534;50.762;7.000;2022-11-15T05:13:44;11.40;99.90
14884;DHT22;7534;50.762;7.000;2022-11-15T05:16:09;11.30;99.90
14884;DHT22;7534;50.762;7.000;2022-11-15T05:18:35;11.40;99.90
14884;DHT22;7534;50.762;7.000;2022-11-15T05:21:05;11.50;99.90
14884;DHT22;7534;50.762;7.000;2022-11-15T05:23:38;11.50;99.90
14884;DHT22;7534;50.762;7.000;2022-11-15T05:26:06;11.50;99.90
14884;DHT22;7534;50.762;7.000;2022-11-15T05:28:33;11.40;99.90
14884;DHT22;7534;50.762;7.000;2022-11-15T05:31:01;11.40;99.90
14884;DHT22;7534;50.762;7.000;2022-11-15T05:33:27;11.30;99.90
14884;DHT22;7534;50.762;7.000;2022-11-15T05:38:37;11.30;99.90
14884;DHT22;7534;50.762;7.000;2022-11-15T05:41:03;11.20;99.90
14884;DHT22;7534;50.762;7.000;2022-11-15T05:43:33;11.00;99.90
14884;DHT22;7534;50.762;7.000;2022-11-15T05:46:02;10.80;99.90
14884;DHT22;7534;50.762;7.000;2022-11-15T05:48:29;10.80;99.90
14884;DHT22;7534;50.762;7.000;2022-11-15T05:50:56;10.70;99.90
14884;DHT22;7534;50.762;7.000;2022-11-15T05:53:23;10.50;99.90
14884;DHT22;7534;50.762;7.000;2022-11-15T05:55:51;10.50;99.90
14884;DHT22;7534;50.762;7.000;2022-11-15T05:58:18;10.40;99.90
14884;DHT22;7534;50.762;7.000;2022-11-15T06:00:45;10.30;99.90
14884;DHT22;7534;50.762;7.000;2022-11-15T06:03:12;10.50;99.90
14884;DHT22;7534;50.762;7.000;2022-11-15T06:05:39;10.50;99.90
14884;DHT22;7534;50.762;7.000;2022-11-15T06:08:05;10.50;99.90
14884;DHT22;7534;50.762;7.000;2022-11-15T06:10:32;10.40;99.90
14884;DHT22;7534;50.762;7.000;2022-11-15T06:13:02;10.50;99.90
14884;DHT22;7534;50.762;7.000;2022-11-15T06:15:29;10.60;99.90
14884;DHT22;7534;50.762;7.000;2022-11-15T06:17:58;10.50;99.90
14884;DHT22;7534;50.762;7.000;2022-11-15T06:20:28;10.60;99.90
14884;DHT22;7534;50.762;7.000;2022-11-15T06:23:03;10.70;99.90
14884;DHT22;7534;50.762;7.000;2022-11-15T06:25:30;10.70;99.90
14884;DHT22;7534;50.762;7.000;2022-11-15T06:27:58;10.90;99.90
14884;DHT22;7534;50.762;7.000;2022-11-15T06:30:25;10.90;99.90
14884;DHT22;7534;50.762;7.000;2022-11-15T06:32:59;10.80;99.90
14884;DHT22;7534;50.762;7.000;2022-11-15T06:35:30;10.90;99.90
14884;DHT22;7534;50.762;7.000;2022-11-15T06:38:07;10.90;99.90
14884;DHT22;7534;50.762;7.000;2022-11-15T06:40:35;10.90;99.90
14884;DHT22;7534;50.762;7.000;2022-11-15T06:43:03;10.90;99.90
14884;DHT22;7534;50.762;7.000;2022-11-15T06:45:29;10.90;99.90
14884;DHT22;7534;50.762;7.000;2022-11-15T06:47:56;10.80;99.90
14884;DHT22;7534;50.762;7.000;2022-11-15T06:50:22;10.80;99.90
14884;DHT22;7534;50.762;7.000;2022-11-15T06:52:48;10.80;99.90
14884;DHT22;7534;50.762;7.000;2022-11-15T06:55:14;10.60;99.90
14884;DHT22;7534;50.762;7.000;2022-11-15T06:57:49;10.60;99.90
14884;DHT22;7534;50.762;7.000;2022-11-15T07:00:17;10.60;99.90
14884;DHT22;7534;50.762;7.000;2022-11-15T07:02:45;10.50;99.90
14884;DHT22;7534;50.762;7.000;2022-11-15T07:05:11;10.40;99.90
14884;DHT22;7534;50.762;7.000;2022-11-15T07:07:38;10.30;99.90
14884;DHT22;7534;50.762;7.000;2022-11-15T07:10:04;10.30;99.90
14884;DHT22;7534;50.762;7.000;2022-11-15T07:12:31;10.30;99.90
14884;DHT22;7534;50.762;7.000;2022-11-15T07:14:57;10.30;99.90
14884;DHT22;7534;50.762;7.000;2022-11-15T07:17:23;10.30;99.90
14884;DHT22;7534;50.762;7.000;2022-11-15T07:19:48;10.40;99.90
14884;DHT22;7534;50.762;7.000;2022-11-15T07:22:14;10.40;99.90
14884;DHT22;7534;50.762;7.000;2022-11-15T07:24:40;10.40;99.90
14884;DHT22;7534;50.762;7.000;2022-11-15T07:27:05;10.30;99.90
14884;DHT22;7534;50.762;7.000;2022-11-15T07:29:31;10.30;99.90
14884;DHT22;7534;50.762;7.000;2022-11-15T07:31:57;10.40;99.90
14884;DHT22;7534;50.762;7.000;2022-11-15T07:34:23;10.50;99.90
14884;DHT22;7534;50.762;7.000;2022-11-15T07:36:49;10.70;99.90
14884;DHT22;7534;50.762;7.000;2022-11-15T07:39:15;10.80;99.90
14884;DHT22;7534;50.762;7.000;2022-11-15T07:41:40;10.80;99.90
14884;DHT22;7534;50.762;7.000;2022-11-15T07:44:06;10.90;99.90
14884;DHT22;7534;50.762;7.000;2022-11-15T07:46:32;11.10;99.90
14884;DHT22;7534;50.762;7.000;2022-11-15T07:48:57;11.40;99.90
14884;DHT22;7534;50.762;7.000;2022-11-15T07:51:23;11.50;99.90
14884;DHT22;7534;50.762;7.000;2022-11-15T07:53:49;11.70;99.90
14884;DHT22;7534;50.762;7.000;2022-11-15T07:56:15;11.90;99.90
14884;DHT22;7534;50.762;7.000;2022-11-15T07:58:40;12.10;99.90
14884;DHT22;7534;50.762;7.000;2022-11-15T08:01:11;12.30;99.90
14884;DHT22;7534;50.762;7.000;2022-11-15T08:03:37;12.50;99.90
14884;DHT22;7534;50.762;7.000;2022-11-15T08:06:04;12.60;99.90
14884;DHT22;7534;50.762;7.000;2022-11-15T08:08:30;12.90;99.90
14884;DHT22;7534;50.762;7.000;2022-11-15T08:10:57;13.20;99.90
14884;DHT22;7534;50.762;7.000;2022-11-15T08:13:23;13.40;99.90
14884;DHT22;7534;50.762;7.000;2022-11-15T08:15:50;13.50;99.90
14884;DHT22;7534;50.762;7.000;2022-11-15T08:18:16;13.60;99.90
14884;DHT22;7534;50.762;7.000;2022-11-15T08:20:42;13.80;99.90
14884;DHT22;7534;50.762;7.000;2022-11-15T08:23:10;14.00;99.90
14884;DHT22;7534;50.762;7.000;2022-11-15T08:25:38;14.60;99.90
14884;DHT22;7534;50.762;7.000;2022-11-15T08:28:07;14.40;99.90
14884;DHT22;7534;50.762;7.000;2022-11-15T08:30:39;14.70;99.90
14884;DHT22;7534;50.762;7.000;2022-11-15T08:33:10;14.80;99.90
14884;DHT22;7534;50.762;7.000;2022-11-15T08:35:39;14.90;99.90
14884;DHT22;7534;50.762;7.000;2022-11-15T08:38:06;14.90;99.90
14884;DHT22;7534;50.762;7.000;2022-11-15T08:40:31;15.10;99.90
14884;DHT22;7534;50.762;7.000;2022-11-15T08:42:57;15.20;99.90
14884;DHT22;7534;50.762;7.000;2022-11-15T08:45:24;15.30;99.90
14884;DHT22;7534;50.762;7.000;2022-11-15T08:47:50;15.70;99.90
14884;DHT22;7534;50.762;7.000;2022-11-15T08:50:15;16.10;99.10
14884;DHT22;7534;50.762;7.000;2022-11-15T08:52:41;16.60;98.40
14884;DHT22;7534;50.762;7.000;2022-11-15T08:55:07;16.80;97.00
14884;DHT22;7534;50.762;7.000;2022-11-15T08:57:33;16.70;97.00
14884;DHT22;7534;50.762;7.000;2022-11-15T08:59:59;16.80;97.00
14884;DHT22;7534;50.762;7.000;2022-11-15T09:02:25;16.90;96.50
14884;DHT22;7534;50.762;7.000;2022-11-15T09:04:50;16.50;95.30
14884;DHT22;7534;50.762;7.000;2022-11-15T09:07:16;16.40;95.70
14884;DHT22;7534;50.762;7.000;2022-11-15T09:09:42;16.70;95.50
14884;DHT22;7534;50.762;7.000;2022-11-15T09:12:08;16.70;94.70
14884;DHT22;7534;50.762;7.000;2022-11-15T09:14:34;16.70;94.90
14884;DHT22;7534;50.762;7.000;2022-11-15T09:17:00;16.80;94.70
14884;DHT22;7534;50.762;7.000;2022-11-15T09:19:26;16.90;94.20
14884;DHT22;7534;50.762;7.000;2022-11-15T09:21:52;17.10;94.20
14884;DHT22;7534;50.762;7.000;2022-11-15T09:24:18;17.20;93.20
14884;DHT22;7534;50.762;7.000;2022-11-15T09:26:44;17.60;93.00
14884;DHT22;7534;50.762;7.000;2022-11-15T09:29:10;17.10;92.80
14884;DHT22;7534;50.762;7.000;2022-11-15T09:31:36;16.70;92.90
14884;DHT22;7534;50.762;7.000;2022-11-15T09:34:01;16.70;93.50
14884;DHT22;7534;50.762;7.000;2022-11-15T09:36:27;16.90;93.10
14884;DHT22;7534;50.762;7.000;2022-11-15T09:38:53;16.80;93.10
14884;DHT22;7534;50.762;7.000;2022-11-15T09:50:12;15.80;93.70
14884;DHT22;7534;50.762;7.000;2022-11-15T09:52:43;15.50;93.90
14884;DHT22;7534;50.762;7.000;2022-11-15T09:55:12;15.30;94.10
14884;DHT22;7534;50.762;7.000;2022-11-15T09:58:00;15.20;94.20
14884;DHT22;7534;50.762;7.000;2022-11-15T10:00:34;15.00;93.80
14884;DHT22;7534;50.762;7.000;2022-11-15T10:03:16;15.00;94.00
14884;DHT22;7534;50.762;7.000;2022-11-15T10:05:50;15.10;93.80
14884;DHT22;7534;50.762;7.000;2022-11-15T10:08:35;15.10;93.30
14884;DHT22;7534;50.762;7.000;2022-11-15T10:11:28;15.20;93.10
14884;DHT22;7534;50.762;7.000;2022-11-15T10:14:01;15.30;93.20
14884;DHT22;7534;50.762;7.000;2022-11-15T10:19:27;15.30;92.40
14884;DHT22;7534;50.762;7.000;2022-11-15T10:22:28;15.30;92.00
14884;DHT22;7534;50.762;7.000;2022-11-15T10:25:17;15.30;91.40
14884;DHT22;7534;50.762;7.000;2022-11-15T10:27:52;15.10;90.60
14884;DHT22;7534;50.762;7.000;2022-11-15T10:30:36;15.10;90.80
14884;DHT22;7534;50.762;7.000;2022-11-15T10:41:20;15.10;90.60
14884;DHT22;7534;50.762;7.000;2022-11-15T10:49:23;15.40;90.30
14884;DHT22;7534;50.762;7.000;2022-11-15T10:51:54;15.60;90.30
14884;DHT22;7534;50.762;7.000;2022-11-15T10:54:37;15.60;89.80
14884;DHT22;7534;50.762;7.000;2022-11-15T10:57:14;15.70;88.80
14884;DHT22;7534;50.762;7.000;2022-11-15T11:00:07;15.60;88.10
14884;DHT22;7534;50.762;7.000;2022-11-15T11:05:38;15.60;89.50
14884;DHT22;7534;50.762;7.000;2022-11-15T11:08:23;15.70;88.80
14884;DHT22;7534;50.762;7.000;2022-11-15T11:10:57;15.70;89.00
14884;DHT22;7534;50.762;7.000;2022-11-15T11:13:27;15.80;89.80
14884;DHT22;7534;50.762;7.000;2022-11-15T11:21:49;15.10;91.20
14884;DHT22;7534;50.762;7.000;2022-11-15T11:27:43;14.90;92.20
14884;DHT22;7534;50.762;7.000;2022-11-15T11:34:34;15.00;92.60
14884;DHT22;7534;50.762;7.000;2022-11-15T11:37:07;15.20;92.70
14884;DHT22;7534;50.762;7.000;2022-11-15T11:48:43;16.10;91.60
14884;DHT22;7534;50.762;7.000;2022-11-15T11:54:03;16.00;91.20
14884;DHT22;7534;50.762;7.000;2022-11-15T11:56:48;15.90;91.10
14884;DHT22;7534;50.762;7.000;2022-11-15T11:59:39;15.80;91.20
14884;DHT22;7534;50.762;7.000;2022-11-15T12:02:43;15.90;91.40
14884;DHT22;7534;50.762;7.000;2022-11-15T12:05:29;16.10;91.00
14884;DHT22;7534;50.762;7.000;2022-11-15T12:08:19;16.40;90.80
14884;DHT22;7534;50.762;7.000;2022-11-15T12:10:53;16.50;90.60
14884;DHT22;7534;50.762;7.000;2022-11-15T12:13:27;16.50;90.10
14884;DHT22;7534;50.762;7.000;2022-11-15T12:16:27;16.80;90.00
14884;DHT22;7534;50.762;7.000;2022-11-15T12:18:58;16.70;90.20
14884;DHT22;7534;50.762;7.000;2022-11-15T12:21:35;16.60;90.30
14884;DHT22;7534;50.762;7.000;2022-11-15T12:24:35;16.60;90.30
14884;DHT22;7534;50.762;7.000;2022-11-15T12:30:04;17.10;90.20
14884;DHT22;7534;50.762;7.000;2022-11-15T12:32:48;17.10;90.00
14884;DHT22;7534;50.762;7.000;2022-11-15T12:35:40;17.10;90.00
14884;DHT22;7534;50.762;7.000;2022-11-15T12:38:12;17.10;90.10
14884;DHT22;7534;50.762;7.000;2022-11-15T12:41:15;17.10;90.10
14884;DHT22;7534;50.762;7.000;2022-11-15T12:43:43;17.00;90.20
14884;DHT22;7534;50.762;7.000;2022-11-15T12:46:22;17.10;90.10
14884;DHT22;7534;50.762;7.000;2022-11-15T12:59:55;16.90;90.40
14884;DHT22;7534;50.762;7.000;2022-11-15T13:02:43;16.80;90.50
14884;DHT22;7534;50.762;7.000;2022-11-15T13:17:46;16.40;92.40
14884;DHT22;7534;50.762;7.000;2022-11-15T13:22:43;16.10;94.10
14884;DHT22;7534;50.762;7.000;2022-11-15T13:33:33;15.60;95.50
14884;DHT22;7534;50.762;7.000;2022-11-15T13:36:06;15.70;95.60
14884;DHT22;7534;50.762;7.000;2022-11-15T13:38:41;15.80;95.60
14884;DHT22;7534;50.762;7.000;2022-11-15T13:41:26;15.80;95.60
14884;DHT22;7534;50.762;7.000;2022-11-15T13:43:55;15.90;95.40
14884;DHT22;7534;50.762;7.000;2022-11-15T13:46:33;15.80;95.50
14884;DHT22;7534;50.762;7.000;2022-11-15T13:49:08;15.70;95.80
14884;DHT22;7534;50.762;7.000;2022-11-15T13:51:50;15.60;96.00
14884;DHT22;7534;50.762;7.000;2022-11-15T13:54:47;15.70;96.00
14884;DHT22;7534;50.762;7.000;2022-11-15T13:57:23;15.80;95.80
14884;DHT22;7534;50.762;7.000;2022-11-15T13:59:55;15.90;95.70
14884;DHT22;7534;50.762;7.000;2022-11-15T14:02:34;15.70;95.70
14884;DHT22;7534;50.762;7.000;2022-11-15T14:05:14;15.70;96.00
14884;DHT22;7534;50.762;7.000;2022-11-15T14:07:53;15.80;96.00
14884;DHT22;7534;50.762;7.000;2022-11-15T14:10:35;16.00;95.90
14884;DHT22;7534;50.762;7.000;2022-11-15T14:13:04;16.10;95.70
14884;DHT22;7534;50.762;7.000;2022-11-15T14:15:37;16.00;95.50
14884;DHT22;7534;50.762;7.000;2022-11-15T14:18:04;16.00;95.60
14884;DHT22;7534;50.762;7.000;2022-11-15T14:20:37;16.00;95.50
14884;DHT22;7534;50.762;7.000;2022-11-15T14:23:25;16.10;95.50
14884;DHT22;7534;50.762;7.000;2022-11-15T14:25:53;16.10;95.60
14884;DHT22;7534;50.762;7.000;2022-11-15T14:30:51;15.90;95.80
14884;DHT22;7534;50.762;7.000;2022-11-15T14:36:04;15.80;96.10
14884;DHT22;7534;50.762;7.000;2022-11-15T14:38:36;15.60;96.40
14884;DHT22;7534;50.762;7.000;2022-11-15T14:41:02;15.50;96.60
14884;DHT22;7534;50.762;7.000;2022-11-15T14:43:28;15.50;96.70
14884;DHT22;7534;50.762;7.000;2022-11-15T14:45:54;15.40;96.80
14884;DHT22;7534;50.762;7.000;2022-11-15T14:48:19;15.40;97.00
14884;DHT22;7534;50.762;7.000;2022-11-15T14:50:45;15.30;97.10
14884;DHT22;7534;50.762;7.000;2022-11-15T14:53:16;15.40;97.10
14884;DHT22;7534;50.762;7.000;2022-11-15T14:55:43;15.50;97.10
14884;DHT22;7534;50.762;7.000;2022-11-15T14:58:09;15.40;97.00
14884;DHT22;7534;50.762;7.000;2022-11-15T15:00:38;15.20;97.30
14884;DHT22;7534;50.762;7.000;2022-11-15T15:03:05;15.20;97.50
14884;DHT22;7534;50.762;7.000;2022-11-15T15:05:42;15.10;97.70
14884;DHT22;7534;50.762;7.000;2022-11-15T15:08:10;15.00;98.00
14884;DHT22;7534;50.762;7.000;2022-11-15T15:10:42;14.90;98.10
14884;DHT22;7534;50.762;7.000;2022-11-15T15:13:22;15.00;98.20
14884;DHT22;7534;50.762;7.000;2022-11-15T15:15:50;14.90;98.30
14884;DHT22;7534;50.762;7.000;2022-11-15T15:18:17;15.00;98.30
14884;DHT22;7534;50.762;7.000;2022-11-15T15:20:45;15.00;98.30
14884;DHT22;7534;50.762;7.000;2022-11-15T15:23:19;14.90;98.30
14884;DHT22;7534;50.762;7.000;2022-11-15T15:25:46;14.70;98.60
14884;DHT22;7534;50.762;7.000;2022-11-15T15:28:14;14.70;98.90
14884;DHT22;7534;50.762;7.000;2022-11-15T15:30:46;14.70;98.80
14884;DHT22;7534;50.762;7.000;2022-11-15T15:33:13;14.70;99.00
14884;DHT22;7534;50.762;7.000;2022-11-15T15:35:39;14.70;98.90
14884;DHT22;7534;50.762;7.000;2022-11-15T15:38:04;14.50;99.20
14884;DHT22;7534;50.762;7.000;2022-11-15T15:40:32;14.50;99.40
14884;DHT22;7534;50.762;7.000;2022-11-15T15:42:58;14.50;99.50
14884;DHT22;7534;50.762;7.000;2022-11-15T15:45:25;14.50;99.50
14884;DHT22;7534;50.762;7.000;2022-11-15T15:47:54;14.50;99.60
14884;DHT22;7534;50.762;7.000;2022-11-15T15:50:27;14.50;99.60
14884;DHT22;7534;50.762;7.000;2022-11-15T15:52:58;14.50;99.70
14884;DHT22;7534;50.762;7.000;2022-11-15T15:55:25;14.40;99.80
14884;DHT22;7534;50.762;7.000;2022-11-15T15:57:51;14.40;99.90
14884;DHT22;7534;50.762;7.000;2022-11-15T16:00:19;14.30;99.90
14884;DHT22;7534;50.762;7.000;2022-11-15T16:02:46;14.40;99.90
14884;DHT22;7534;50.762;7.000;2022-11-15T16:05:12;14.30;99.90
14884;DHT22;7534;50.762;7.000;2022-11-15T16:07:38;14.30;99.90
14884;DHT22;7534;50.762;7.000;2022-11-15T16:10:40;14.30;99.90
14884;DHT22;7534;50.762;7.000;2022-11-15T16:13:08;14.30;99.90
14884;DHT22;7534;50.762;7.000;2022-11-15T16:15:34;14.30;99.90
14884;DHT22;7534;50.762;7.000;2022-11-15T16:18:01;14.30;99.90
14884;DHT22;7534;50.762;7.000;2022-11-15T16:20:37;14.30;99.90
14884;DHT22;7534;50.762;7.000;2022-11-15T16:23:18;14.30;99.90
14884;DHT22;7534;50.762;7.000;2022-11-15T16:25:50;14.30;99.90
14884;DHT22;7534;50.762;7.000;2022-11-15T16:28:20;14.30;99.90
14884;DHT22;7534;50.762;7.000;2022-11-15T16:31:02;14.30;99.90
14884;DHT22;7534;50.762;7.000;2022-11-15T16:33:28;14.20;99.90
14884;DHT22;7534;50.762;7.000;2022-11-15T16:35:53;14.30;99.90
14884;DHT22;7534;50.762;7.000;2022-11-15T16:38:19;14.20;99.90
14884;DHT22;7534;50.762;7.000;2022-11-15T16:40:45;14.20;99.90
14884;DHT22;7534;50.762;7.000;2022-11-15T16:43:11;14.20;99.90
14884;DHT22;7534;50.762;7.000;2022-11-15T16:45:37;14.20;99.90
14884;DHT22;7534;50.762;7.000;2022-11-15T16:48:04;14.10;99.90
14884;DHT22;7534;50.762;7.000;2022-11-15T16:50:32;14.00;99.90
14884;DHT22;7534;50.762;7.000;2022-11-15T16:53:05;14.10;99.90
14884;DHT22;7534;50.762;7.000;2022-11-15T16:55:33;14.10;99.90
14884;DHT22;7534;50.762;7.000;2022-11-15T16:57:59;14.00;99.90
14884;DHT22;7534;50.762;7.000;2022-11-15T17:00:26;14.10;99.90
14884;DHT22;7534;50.762;7.000;2022-11-15T17:02:52;14.10;99.90
14884;DHT22;7534;50.762;7.000;2022-11-15T17:05:20;14.00;99.90
14884;DHT22;7534;50.762;7.000;2022-11-15T17:07:49;14.10;99.90
14884;DHT22;7534;50.762;7.000;2022-11-15T17:10:22;14.10;99.90
14884;DHT22;7534;50.762;7.000;2022-11-15T17:12:50;14.10;99.90
14884;DHT22;7534;50.762;7.000;2022-11-15T17:15:17;14.10;99.90
14884;DHT22;7534;50.762;7.000;2022-11-15T17:17:53;14.20;99.90
14884;DHT22;7534;50.762;7.000;2022-11-15T17:20:21;14.20;99.90
14884;DHT22;7534;50.762;7.000;2022-11-15T17:22:48;14.10;99.90
14884;DHT22;7534;50.762;7.000;2022-11-15T17:25:14;14.10;99.90
14884;DHT22;7534;50.762;7.000;2022-11-15T17:27:40;14.10;99.90
14884;DHT22;7534;50.762;7.000;2022-11-15T17:30:07;14.20;99.90
14884;DHT22;7534;50.762;7.000;2022-11-15T17:32:35;14.20;99.90
14884;DHT22;7534;50.762;7.000;2022-11-15T17:35:04;14.20;99.90
14884;DHT22;7534;50.762;7.000;2022-11-15T17:37:32;14.00;99.90
14884;DHT22;7534;50.762;7.000;2022-11-15T17:39:58;14.00;99.90
14884;DHT22;7534;50.762;7.000;2022-11-15T17:42:23;13.80;99.90
14884;DHT22;7534;50.762;7.000;2022-11-15T17:44:49;13.60;99.90
14884;DHT22;7534;50.762;7.000;2022-11-15T17:47:15;13.50;99.90
14884;DHT22;7534;50.762;7.000;2022-11-15T17:49:41;13.20;99.90
14884;DHT22;7534;50.762;7.000;2022-11-15T17:52:07;13.10;99.90
14884;DHT22;7534;50.762;7.000;2022-11-15T17:54:33;13.10;99.90
14884;DHT22;7534;50.762;7.000;2022-11-15T17:56:58;13.10;99.90
14884;DHT22;7534;50.762;7.000;2022-11-15T17:59:24;12.90;99.90
14884;DHT22;7534;50.762;7.000;2022-11-15T18:01:50;12.90;99.90
14884;DHT22;7534;50.762;7.000;2022-11-15T18:04:18;12.90;99.90
14884;DHT22;7534;50.762;7.000;2022-11-15T18:06:44;12.70;99.90
14884;DHT22;7534;50.762;7.000;2022-11-15T18:09:10;12.60;99.90